createdAt,value
2018-08-28T00:00:46.385Z,95941.88
2018-08-28T00:03:15.507Z,95946.15
2018-08-28T00:05:44.666Z,95949.73
2018-08-28T00:08:13.772Z,95943.63
2018-08-28T00:10:42.861Z,95943.38
2018-08-28T00:13:11.952Z,95944.52
2018-08-28T00:15:41.057Z,95950.61
2018-08-28T00:18:10.152Z,95950.16
2018-08-28T00:20:39.340Z,95947.58
2018-08-28T00:23:08.436Z,95946.18
2018-08-28T00:25:37.636Z,95955.74
2018-08-28T00:28:06.731Z,95951.67
2018-08-28T00:30:35.836Z,95957.38
2018-08-28T00:33:05.049Z,95961.50
2018-08-28T00:35:34.116Z,95964.95
2018-08-28T00:38:03.208Z,95963.27
2018-08-28T00:40:32.332Z,95964.64
2018-08-28T00:43:01.424Z,95967.17
2018-08-28T00:45:30.598Z,95966.67
2018-08-28T00:47:59.720Z,95969.80
2018-08-28T00:50:28.896Z,95966.97
2018-08-28T00:52:57.990Z,95960.13
2018-08-28T00:55:27.122Z,95969.20
2018-08-28T00:57:56.297Z,95969.48
2018-08-28T01:00:25.377Z,95978.03
2018-08-28T01:02:54.497Z,95974.45
2018-08-28T01:05:24.538Z,95972.39
2018-08-28T01:07:54.073Z,95974.63
2018-08-28T01:10:23.272Z,95979.48
2018-08-28T01:12:52.361Z,95981.08
2018-08-28T01:15:21.440Z,95977.81
2018-08-28T01:17:50.603Z,95978.98
2018-08-28T01:20:19.688Z,95976.09
2018-08-28T01:22:48.867Z,95971.03
2018-08-28T01:25:17.959Z,95973.03
2018-08-28T01:27:47.041Z,95969.34
2018-08-28T01:30:20.309Z,95966.23
2018-08-28T01:32:49.385Z,95970.41
2018-08-28T01:35:18.647Z,95976.03
2018-08-28T01:37:47.755Z,95973.17
2018-08-28T01:40:16.837Z,95978.43
2018-08-28T01:42:45.937Z,95975.80
2018-08-28T01:45:15.142Z,95977.01
2018-08-28T01:47:44.243Z,95975.38
2018-08-28T01:50:13.439Z,95974.93
2018-08-28T01:52:42.529Z,95978.02
2018-08-28T01:55:11.618Z,95975.56
2018-08-28T01:57:40.709Z,95971.67
2018-08-28T02:00:09.827Z,95970.59
2018-08-28T02:02:39.077Z,95976.94
2018-08-28T02:05:08.557Z,95975.93
2018-08-28T02:07:37.761Z,95977.61
2018-08-28T02:10:07.621Z,95974.91
2018-08-28T02:12:36.937Z,95976.31
2018-08-28T02:15:06.149Z,95970.81
2018-08-28T02:17:35.329Z,95969.69
2018-08-28T02:20:04.919Z,95974.39
2018-08-28T02:22:34.146Z,95974.07
2018-08-28T02:25:03.227Z,95969.30
2018-08-28T02:27:32.419Z,95970.25
2018-08-28T02:30:01.501Z,95964.81
2018-08-28T02:32:30.863Z,95964.19
2018-08-28T02:34:59.998Z,95970.98
2018-08-28T02:37:29.274Z,95972.53
2018-08-28T02:39:58.531Z,95966.84
2018-08-28T02:42:27.612Z,95970.66
2018-08-28T02:44:56.696Z,95965.95
2018-08-28T02:47:25.796Z,95964.73
2018-08-28T02:49:54.994Z,95961.67
2018-08-28T02:52:24.122Z,95966.45
2018-08-28T02:54:53.280Z,95970.68
2018-08-28T02:57:22.352Z,95968.77
2018-08-28T02:59:51.448Z,95971.70
2018-08-28T03:02:20.585Z,95975.23
2018-08-28T03:04:49.755Z,95976.19
2018-08-28T03:07:18.876Z,95977.00
2018-08-28T03:09:48.063Z,95976.39
2018-08-28T03:12:17.156Z,95976.84
2018-08-28T03:14:46.255Z,95973.80
2018-08-28T03:17:15.368Z,95978.14
2018-08-28T03:19:44.465Z,95982.78
2018-08-28T03:22:13.661Z,95980.11
2018-08-28T03:24:42.824Z,95978.53
2018-08-28T03:27:11.925Z,95982.29
2018-08-28T03:29:41.019Z,95978.93
2018-08-28T03:32:10.113Z,95982.47
2018-08-28T03:34:39.205Z,95988.02
2018-08-28T03:37:08.420Z,95981.22
2018-08-28T03:39:37.528Z,95986.98
2018-08-28T03:42:06.728Z,95989.36
2018-08-28T03:44:35.935Z,95985.61
2018-08-28T03:47:05.108Z,95984.91
2018-08-28T03:49:34.416Z,95980.52
2018-08-28T03:52:03.924Z,95985.72
2018-08-28T03:54:33.020Z,95985.47
2018-08-28T03:57:02.104Z,95987.23
2018-08-28T03:59:31.214Z,95985.16
2018-08-28T04:02:00.296Z,95990.03
2018-08-28T04:04:29.383Z,95988.94
2018-08-28T04:06:58.476Z,95992.94
2018-08-28T04:09:27.568Z,95989.38
2018-08-28T04:11:56.671Z,95993.98
2018-08-28T04:14:25.928Z,95998.02
2018-08-28T04:16:55.040Z,95993.95
2018-08-28T04:19:24.124Z,95997.64
2018-08-28T04:21:53.256Z,95998.91
2018-08-28T04:24:22.348Z,96001.41
2018-08-28T04:26:51.452Z,96001.48
2018-08-28T04:29:20.648Z,96006.84
2018-08-28T04:31:49.729Z,96007.92
2018-08-28T04:34:18.824Z,96007.94
2018-08-28T04:36:47.919Z,96005.92
2018-08-28T04:39:17.019Z,96001.79
2018-08-28T04:41:46.146Z,96006.81
2018-08-28T04:44:15.320Z,96006.81
2018-08-28T04:46:44.415Z,96008.20
2018-08-28T04:49:13.501Z,96016.45
2018-08-28T04:51:42.612Z,96016.36
2018-08-28T04:54:11.761Z,96014.25
2018-08-28T04:56:40.892Z,96014.16
2018-08-28T04:59:10.211Z,96016.63
2018-08-28T05:01:39.283Z,96022.31
2018-08-28T05:04:08.386Z,96024.42
2018-08-28T05:06:37.526Z,96023.79
2018-08-28T05:09:07.144Z,96022.03
2018-08-28T05:11:36.443Z,96019.88
2018-08-28T05:14:05.520Z,96025.23
2018-08-28T05:16:34.671Z,96017.31
2018-08-28T05:19:03.816Z,96026.92
2018-08-28T05:21:32.955Z,96032.66
2018-08-28T05:24:02.073Z,96033.13
2018-08-28T05:26:31.163Z,96033.48
2018-08-28T05:29:00.298Z,96036.10
2018-08-28T05:31:29.461Z,96033.77
2018-08-28T05:33:58.545Z,96027.04
2018-08-28T05:36:27.861Z,96036.42
2018-08-28T05:38:56.953Z,96039.59
2018-08-28T05:41:26.114Z,96038.96
2018-08-28T05:43:55.256Z,96038.48
2018-08-28T05:46:24.424Z,96048.94
2018-08-28T05:48:53.537Z,96048.55
2018-08-28T05:51:22.901Z,96047.27
2018-08-28T05:53:52.040Z,96042.38
2018-08-28T05:56:21.167Z,96042.92
2018-08-28T05:58:50.818Z,96039.91
2018-08-28T06:01:20.120Z,96038.81
2018-08-28T06:03:49.188Z,96043.08
2018-08-28T06:06:18.340Z,96041.38
2018-08-28T06:08:47.499Z,96045.33
2018-08-28T06:11:16.571Z,96046.30
2018-08-28T06:13:45.728Z,96052.19
2018-08-28T06:16:14.908Z,96063.95
2018-08-28T06:18:44.010Z,96059.23
2018-08-28T06:21:13.210Z,96062.45
2018-08-28T06:23:42.293Z,96063.31
2018-08-28T06:26:11.495Z,96062.08
2018-08-28T06:28:40.815Z,96060.84
2018-08-28T06:31:09.908Z,96061.98
2018-08-28T06:33:39.086Z,96062.13
2018-08-28T06:36:08.189Z,96064.93
2018-08-28T06:38:37.387Z,96066.14
2018-08-28T06:41:06.580Z,96058.97
2018-08-28T06:43:35.757Z,96059.50
2018-08-28T06:46:04.810Z,96058.11
2018-08-28T06:48:33.901Z,96052.84
2018-08-28T06:51:03.047Z,96054.47
2018-08-28T06:53:32.157Z,96058.63
2018-08-28T06:56:01.350Z,96060.80
2018-08-28T06:58:30.460Z,96064.22
2018-08-28T07:00:59.651Z,96066.97
2018-08-28T07:03:28.766Z,96064.58
2018-08-28T07:05:58.093Z,96059.23
2018-08-28T07:08:27.172Z,96055.91
2018-08-28T07:10:56.261Z,96061.45
2018-08-28T07:13:25.409Z,96057.52
2018-08-28T07:15:54.612Z,96063.88
2018-08-28T07:18:23.721Z,96069.06
2018-08-28T07:20:52.824Z,96067.00
2018-08-28T07:23:21.939Z,96071.78
2018-08-28T07:25:51.292Z,96067.52
2018-08-28T07:28:20.215Z,96064.36
2018-08-28T07:30:49.296Z,96066.69
2018-08-28T07:33:18.550Z,96067.02
2018-08-28T07:35:47.710Z,96069.60
2018-08-28T07:38:16.888Z,96062.80
2018-08-28T07:40:46.104Z,96066.06
2018-08-28T07:43:15.396Z,96063.48
2018-08-28T07:45:44.488Z,96069.27
2018-08-28T07:48:13.684Z,96067.92
2018-08-28T07:50:42.813Z,96066.36
2018-08-28T07:53:11.904Z,96070.39
2018-08-28T07:55:41.064Z,96072.41
2018-08-28T07:58:10.168Z,96070.81
2018-08-28T08:00:39.356Z,96076.27
2018-08-28T08:03:08.456Z,96071.58
2018-08-28T08:05:37.598Z,96073.49
2018-08-28T08:08:06.746Z,96069.81
2018-08-28T08:10:35.973Z,96071.17
2018-08-28T08:13:04.967Z,96071.59
2018-08-28T08:15:34.095Z,96075.94
2018-08-28T08:18:03.141Z,96074.43
2018-08-28T08:20:32.269Z,96075.84
2018-08-28T08:23:01.419Z,96077.48
2018-08-28T08:25:30.509Z,96077.83
2018-08-28T08:27:59.780Z,96083.48
2018-08-28T08:30:28.812Z,96082.11
2018-08-28T08:32:57.929Z,96079.11
2018-08-28T08:35:27.102Z,96081.74
2018-08-28T08:37:56.212Z,96069.38
2018-08-28T08:40:25.306Z,96074.35
2018-08-28T08:42:54.400Z,96077.24
2018-08-28T08:45:23.490Z,96076.08
2018-08-28T08:47:52.832Z,96068.57
2018-08-28T08:50:21.988Z,96073.09
2018-08-28T08:52:51.094Z,96070.42
2018-08-28T08:55:20.178Z,96072.84
2018-08-28T08:57:49.380Z,96071.23
2018-08-28T09:00:18.678Z,96070.08
2018-08-28T09:02:48.061Z,96071.47
2018-08-28T09:05:17.172Z,96063.58
2018-08-28T09:07:46.264Z,96060.11
2018-08-28T09:10:15.447Z,96061.50
2018-08-28T09:12:44.589Z,96059.52
2018-08-28T09:15:13.758Z,96053.58
2018-08-28T09:17:42.863Z,96060.13
2018-08-28T09:20:11.963Z,96057.88
2018-08-28T09:22:41.063Z,96054.52
2018-08-28T09:25:10.229Z,96059.41
2018-08-28T09:27:39.357Z,96054.00
2018-08-28T09:30:08.990Z,96055.77
2018-08-28T09:32:38.225Z,96061.80
2018-08-28T09:35:07.389Z,96057.88
2018-08-28T09:37:36.562Z,96055.52
2018-08-28T09:40:06.253Z,96058.63
2018-08-28T09:42:35.469Z,96055.09
2018-08-28T09:45:04.662Z,96052.21
2018-08-28T09:47:33.836Z,96045.70
2018-08-28T09:50:03.053Z,96044.41
2018-08-28T09:52:32.133Z,96049.06
2018-08-28T09:55:01.231Z,96037.98
2018-08-28T09:57:30.344Z,96040.16
2018-08-28T09:59:59.519Z,96040.30
2018-08-28T10:02:28.721Z,96039.28
2018-08-28T10:04:57.922Z,96034.70
2018-08-28T10:07:27.010Z,96031.27
2018-08-28T10:09:56.193Z,96032.73
2018-08-28T10:12:25.321Z,96032.47
2018-08-28T10:14:54.496Z,96030.23
2018-08-28T10:17:23.670Z,96027.16
2018-08-28T10:19:52.808Z,96030.28
2018-08-28T10:22:21.992Z,96023.20
2018-08-28T10:24:51.074Z,96026.66
2018-08-28T10:27:20.297Z,96018.61
2018-08-28T10:29:49.370Z,96028.19
2018-08-28T10:32:18.467Z,96024.41
2018-08-28T10:34:47.588Z,96027.31
2018-08-28T10:37:16.694Z,96028.45
2018-08-28T10:39:45.859Z,96027.09
2018-08-28T10:42:15.148Z,96025.03
2018-08-28T10:44:44.344Z,96024.75
2018-08-28T10:47:13.516Z,96026.75
2018-08-28T10:49:42.900Z,96021.73
2018-08-28T10:52:12.050Z,96016.02
2018-08-28T10:54:41.149Z,96017.58
2018-08-28T10:57:10.359Z,96018.47
2018-08-28T10:59:39.561Z,96014.75
2018-08-28T11:02:08.673Z,96012.00
2018-08-28T11:04:37.831Z,96004.69
2018-08-28T11:07:06.861Z,96001.50
2018-08-28T11:09:36.017Z,96008.95
2018-08-28T11:12:05.132Z,96003.86
2018-08-28T11:14:34.241Z,96003.12
2018-08-28T11:17:03.353Z,95995.38
2018-08-28T11:19:32.936Z,95994.66
2018-08-28T11:22:02.107Z,96001.61
2018-08-28T11:24:31.213Z,95992.81
2018-08-28T11:27:00.433Z,95997.64
2018-08-28T11:29:29.697Z,95990.19
2018-08-28T11:31:58.805Z,95993.94
2018-08-28T11:34:27.931Z,95987.53
2018-08-28T11:36:57.286Z,95983.13
2018-08-28T11:39:26.352Z,95977.27
2018-08-28T11:41:55.642Z,95986.45
2018-08-28T11:44:24.784Z,95978.97
2018-08-28T11:46:53.872Z,95978.98
2018-08-28T11:49:23.006Z,95980.48
2018-08-28T11:51:52.332Z,95980.72
2018-08-28T11:54:21.432Z,95974.56
2018-08-28T11:56:50.534Z,95977.61
2018-08-28T11:59:19.613Z,95974.68
2018-08-28T12:01:48.773Z,95971.78
2018-08-28T12:04:17.871Z,95976.50
2018-08-28T12:06:46.992Z,95977.08
2018-08-28T12:09:16.157Z,95970.95
2018-08-28T12:11:45.358Z,95978.56
2018-08-28T12:14:14.507Z,95973.06
2018-08-28T12:16:43.642Z,95970.03
2018-08-28T12:19:12.744Z,95964.98
2018-08-28T12:21:42.010Z,95959.80
2018-08-28T12:24:11.232Z,95951.61
2018-08-28T12:26:40.419Z,95952.17
2018-08-28T12:29:09.463Z,95949.02
2018-08-28T12:31:38.584Z,95940.27
2018-08-28T12:34:07.651Z,95941.19
2018-08-28T12:36:36.899Z,95943.28
2018-08-28T12:39:06.988Z,95939.77
2018-08-28T12:41:36.216Z,95940.45
2018-08-28T12:44:05.478Z,95931.58
2018-08-28T12:46:34.537Z,95930.53
2018-08-28T12:49:03.785Z,95930.69
2018-08-28T12:51:32.992Z,95926.90
2018-08-28T12:54:02.037Z,95926.71
2018-08-28T12:56:31.105Z,95922.52
2018-08-28T12:59:00.214Z,95920.23
2018-08-28T13:01:29.412Z,95909.23
2018-08-28T13:03:59.477Z,95916.11
2018-08-28T13:06:28.765Z,95911.18
2018-08-28T13:08:58.080Z,95918.30
2018-08-28T13:11:27.872Z,95904.29
2018-08-28T13:13:57.172Z,95908.08
2018-08-28T13:16:26.264Z,95902.09
2018-08-28T13:18:55.442Z,95906.20
2018-08-28T13:21:24.728Z,95906.72
2018-08-28T13:23:53.976Z,95902.59
2018-08-28T13:26:23.076Z,95896.69
2018-08-28T13:28:52.221Z,95893.39
2018-08-28T13:31:21.308Z,95889.66
2018-08-28T13:33:50.427Z,95891.42
2018-08-28T13:36:20.210Z,95894.76
2018-08-28T13:38:49.301Z,95879.29
2018-08-28T13:41:18.430Z,95889.47
2018-08-28T13:43:47.511Z,95894.97
2018-08-28T13:46:16.599Z,95900.20
2018-08-28T13:48:45.730Z,95901.95
2018-08-28T13:51:15.120Z,95901.02
2018-08-28T13:53:44.427Z,95892.17
2018-08-28T13:56:13.494Z,95900.14
2018-08-28T13:58:42.598Z,95897.28
2018-08-28T14:01:11.756Z,95897.70
2018-08-28T14:03:40.841Z,95883.36
2018-08-28T14:06:09.979Z,95890.13
2018-08-28T14:08:39.110Z,95895.77
2018-08-28T14:11:08.277Z,95894.06
2018-08-28T14:13:37.544Z,95889.94
2018-08-28T14:16:06.593Z,95892.08
2018-08-28T14:18:35.846Z,95890.53
2018-08-28T14:21:04.968Z,95884.75
2018-08-28T14:23:34.139Z,95880.58
2018-08-28T14:26:03.209Z,95878.73
2018-08-28T14:28:32.333Z,95879.20
2018-08-28T14:31:01.412Z,95882.09
2018-08-28T14:33:30.548Z,95878.84
2018-08-28T14:35:59.643Z,95876.15
2018-08-28T14:38:28.820Z,95879.63
2018-08-28T14:40:57.925Z,95875.77
2018-08-28T14:43:26.999Z,95872.41
2018-08-28T14:45:56.113Z,95876.98
2018-08-28T14:48:25.180Z,95872.41
2018-08-28T14:50:54.286Z,95868.91
2018-08-28T14:53:23.396Z,95868.42
2018-08-28T14:55:52.508Z,95869.91
2018-08-28T14:58:21.688Z,95863.83
2018-08-28T15:00:50.794Z,95866.22
2018-08-28T15:03:19.894Z,95862.59
2018-08-28T15:05:48.972Z,95860.71
2018-08-28T15:08:18.075Z,95864.73
2018-08-28T15:10:47.180Z,95860.95
2018-08-28T15:13:16.451Z,95858.17
2018-08-28T15:15:45.506Z,95850.98
2018-08-28T15:18:14.658Z,95860.64
2018-08-28T15:20:43.838Z,95857.09
2018-08-28T15:23:12.966Z,95856.06
2018-08-28T15:25:42.153Z,95858.12
2018-08-28T15:28:11.553Z,95857.30
2018-08-28T15:30:40.633Z,95853.38
2018-08-28T15:33:10.069Z,95845.16
2018-08-28T15:35:39.240Z,95843.97
2018-08-28T15:38:08.344Z,95847.91
2018-08-28T15:40:37.453Z,95839.37
2018-08-28T15:43:06.677Z,95839.09
2018-08-28T15:45:35.720Z,95841.80
2018-08-28T15:48:04.941Z,95840.55
2018-08-28T15:50:34.120Z,95836.55
2018-08-28T15:53:03.274Z,95832.91
2018-08-28T15:55:32.425Z,95834.98
2018-08-28T15:58:01.921Z,95829.11
2018-08-28T16:00:31.029Z,95830.58
2018-08-28T16:03:00.220Z,95832.73
2018-08-28T16:05:29.328Z,95832.78
2018-08-28T16:07:58.389Z,95835.62
2018-08-28T16:10:27.460Z,95838.98
2018-08-28T16:12:56.578Z,95834.88
2018-08-28T16:15:25.778Z,95834.78
2018-08-28T16:17:54.877Z,95832.77
2018-08-28T16:20:23.992Z,95834.94
2018-08-28T16:22:58.577Z,95833.55
2018-08-28T16:25:27.704Z,95835.39
2018-08-28T16:27:56.824Z,95824.80
2018-08-28T16:30:25.993Z,95824.42
2018-08-28T16:32:55.179Z,95823.03
2018-08-28T16:35:24.343Z,95824.87
2018-08-28T16:37:53.593Z,95821.89
2018-08-28T16:40:22.779Z,95818.84
2018-08-28T16:42:52.187Z,95815.84
2018-08-28T16:45:21.281Z,95812.72
2018-08-28T16:47:50.505Z,95817.53
2018-08-28T16:50:19.910Z,95814.35
2018-08-28T16:52:48.884Z,95817.27
2018-08-28T16:55:17.989Z,95807.07
2018-08-28T16:57:47.196Z,95815.33
2018-08-28T17:00:16.402Z,95810.56
2018-08-28T17:02:45.653Z,95813.89
2018-08-28T17:05:16.704Z,95809.97
2018-08-28T17:07:45.832Z,95812.98
2018-08-28T17:10:14.984Z,95810.72
2018-08-28T17:12:44.196Z,95812.20
2018-08-28T17:15:13.312Z,95806.17
2018-08-28T17:17:42.450Z,95804.73
2018-08-28T17:20:11.608Z,95803.73
2018-08-28T17:22:40.779Z,95805.39
2018-08-28T17:25:09.876Z,95805.98
2018-08-28T17:27:39.075Z,95802.55
2018-08-28T17:30:08.303Z,95809.78
2018-08-28T17:32:37.406Z,95811.63
2018-08-28T17:35:06.800Z,95804.09
2018-08-28T17:37:36.005Z,95804.97
2018-08-28T17:40:05.378Z,95805.03
2018-08-28T17:42:34.581Z,95808.95
2018-08-28T17:45:03.749Z,95810.13
2018-08-28T17:47:32.879Z,95811.27
2018-08-28T17:50:02.067Z,95805.07
2018-08-28T17:52:31.179Z,95811.52
2018-08-28T17:55:01.155Z,95817.62
2018-08-28T17:57:30.352Z,95814.34
2018-08-28T17:59:59.464Z,95811.33
2018-08-28T18:02:28.556Z,95809.16
2018-08-28T18:04:57.673Z,95808.07
2018-08-28T18:07:26.899Z,95806.64
2018-08-28T18:09:56.056Z,95813.62
2018-08-28T18:12:25.287Z,95812.22
2018-08-28T18:14:54.530Z,95817.45
2018-08-28T18:17:23.640Z,95818.52
2018-08-28T18:19:52.723Z,95817.69
2018-08-28T18:22:21.980Z,95823.20
2018-08-28T18:24:51.147Z,95824.66
2018-08-28T18:27:20.369Z,95827.42
2018-08-28T18:29:49.569Z,95829.66
2018-08-28T18:32:18.733Z,95831.40
2018-08-28T18:34:47.912Z,95826.48
2018-08-28T18:37:17.028Z,95836.00
2018-08-28T18:39:46.215Z,95837.69
2018-08-28T18:42:15.332Z,95845.52
2018-08-28T18:44:44.520Z,95840.14
2018-08-28T18:47:13.700Z,95841.17
2018-08-28T18:49:42.828Z,95842.93
2018-08-28T18:52:11.915Z,95838.67
2018-08-28T18:54:41.020Z,95837.41
2018-08-28T18:57:10.210Z,95836.80
2018-08-28T18:59:39.416Z,95838.56
2018-08-28T19:02:08.526Z,95837.89
2018-08-28T19:04:37.622Z,95836.76
2018-08-28T19:07:06.789Z,95837.63
2018-08-28T19:09:35.888Z,95833.41
2018-08-28T19:12:04.992Z,95836.74
2018-08-28T19:14:34.162Z,95832.95
2018-08-28T19:17:03.267Z,95829.08
2018-08-28T19:19:32.529Z,95839.42
2018-08-28T19:22:01.655Z,95838.81
2018-08-28T19:24:30.851Z,95833.01
2018-08-28T19:26:59.952Z,95832.96
2018-08-28T19:29:29.227Z,95834.11
2018-08-28T19:31:58.342Z,95837.31
2018-08-28T19:34:27.489Z,95827.18
2018-08-28T19:36:56.645Z,95832.50
2018-08-28T19:39:25.763Z,95828.98
2018-08-28T19:41:54.945Z,95829.89
2018-08-28T19:44:24.252Z,95830.44
2018-08-28T19:46:53.785Z,95829.41
2018-08-28T19:49:23.069Z,95833.06
2018-08-28T19:51:52.522Z,95836.59
2018-08-28T19:54:21.717Z,95836.45
2018-08-28T19:56:50.844Z,95833.88
2018-08-28T19:59:19.936Z,95834.02
2018-08-28T20:01:49.115Z,95830.69
2018-08-28T20:04:18.350Z,95831.14
2018-08-28T20:06:47.454Z,95827.88
2018-08-28T20:09:16.568Z,95824.78
2018-08-28T20:11:45.785Z,95831.36
2018-08-28T20:14:15.164Z,95833.66
2018-08-28T20:16:44.346Z,95820.72
2018-08-28T20:19:13.648Z,95821.88
2018-08-28T20:21:42.764Z,95820.85
2018-08-28T20:24:11.892Z,95824.68
2018-08-28T20:26:41.122Z,95826.30
2018-08-28T20:29:10.314Z,95828.83
2018-08-28T20:31:39.400Z,95831.47
2018-08-28T20:34:08.582Z,95829.67
2018-08-28T20:36:37.710Z,95827.66
2018-08-28T20:39:07.159Z,95830.45
2018-08-28T20:41:37.018Z,95830.48
2018-08-28T20:44:06.556Z,95824.77
2018-08-28T20:46:36.009Z,95832.37
2018-08-28T20:49:05.330Z,95822.34
2018-08-28T20:51:34.472Z,95824.31
2018-08-28T20:54:03.661Z,95822.41
2018-08-28T20:56:32.804Z,95818.66
2018-08-28T20:59:02.008Z,95816.45
2018-08-28T21:01:31.096Z,95816.78
2018-08-28T21:04:00.205Z,95818.59
2018-08-28T21:06:29.465Z,95814.45
2018-08-28T21:08:58.597Z,95806.73
2018-08-28T21:11:27.829Z,95805.09
2018-08-28T21:13:56.937Z,95799.30
2018-08-28T21:16:26.061Z,95802.37
2018-08-28T21:18:55.181Z,95797.59
2018-08-28T21:21:24.290Z,95796.20
2018-08-28T21:23:53.473Z,95799.74
2018-08-28T21:26:22.748Z,95799.97
2018-08-28T21:28:51.892Z,95795.58
2018-08-28T21:31:21.072Z,95796.51
2018-08-28T21:33:50.258Z,95796.56
2018-08-28T21:36:19.872Z,95801.41
2018-08-28T21:38:49.064Z,95789.91
2018-08-28T21:41:18.234Z,95791.80
2018-08-28T21:43:47.352Z,95791.45
2018-08-28T21:46:16.591Z,95792.29
2018-08-28T21:48:45.680Z,95788.16
2018-08-28T21:51:14.792Z,95779.52
2018-08-28T21:53:43.941Z,95783.75
2018-08-28T21:56:13.127Z,95780.43
2018-08-28T21:58:42.243Z,95773.63
2018-08-28T22:01:12.224Z,95770.01
2018-08-28T22:03:42.625Z,95762.87
2018-08-28T22:06:17.174Z,95760.23
2018-08-28T22:08:46.252Z,95753.47
2018-08-28T22:11:15.362Z,95745.08
2018-08-28T22:13:44.604Z,95747.57
2018-08-28T22:16:13.732Z,95744.20
2018-08-28T22:18:42.824Z,95740.41
2018-08-28T22:21:11.966Z,95747.38
2018-08-28T22:23:41.079Z,95736.38
2018-08-28T22:26:10.272Z,95742.58
2018-08-28T22:28:39.408Z,95739.23
2018-08-28T22:31:08.508Z,95735.53
2018-08-28T22:33:37.629Z,95736.29
2018-08-28T22:36:06.802Z,95735.40
2018-08-28T22:38:35.908Z,95737.32
2018-08-28T22:41:05.071Z,95739.20
2018-08-28T22:43:34.169Z,95731.20
2018-08-28T22:46:03.264Z,95735.31
2018-08-28T22:48:32.445Z,95722.73
2018-08-28T22:51:01.538Z,95727.70
2018-08-28T22:53:30.631Z,95735.98
2018-08-28T22:55:59.798Z,95721.67
2018-08-28T22:58:28.900Z,95726.81
2018-08-28T23:00:57.993Z,95719.80
2018-08-28T23:03:27.091Z,95724.75
2018-08-28T23:05:56.204Z,95722.96
2018-08-28T23:08:25.309Z,95709.86
2018-08-28T23:10:54.400Z,95708.48
2018-08-28T23:13:23.571Z,95706.42
2018-08-28T23:15:52.672Z,95706.20
2018-08-28T23:18:21.774Z,95710.63
2018-08-28T23:20:50.889Z,95707.38
2018-08-28T23:23:20.063Z,95713.83
2018-08-28T23:25:49.177Z,95710.00
2018-08-28T23:28:18.376Z,95703.34
2018-08-28T23:30:47.580Z,95707.17
2018-08-28T23:33:16.743Z,95694.53
2018-08-28T23:35:45.868Z,95697.44
2018-08-28T23:38:14.963Z,95700.45
2018-08-28T23:40:44.125Z,95701.01
2018-08-28T23:43:13.240Z,95697.92
2018-08-28T23:45:42.333Z,95695.55
2018-08-28T23:48:11.523Z,95693.29
2018-08-28T23:50:40.644Z,95689.08
2018-08-28T23:53:09.743Z,95688.48
2018-08-28T23:55:39.017Z,95680.50
2018-08-28T23:58:08.137Z,95672.53
